Terminal Aerodrome Forecast
Issued by NWS Lubbock, TX

Home | Current Version | Previous Version | Text Only | Print | Product List | Glossary On
Versions: 1 2 3 4 5 6 7 8 9 10 11 12 13 14 15 16 17 18 19 20 21
000
FTUS44 KLUB 222300
TAFLBB
TAF
KLBB 222339Z 2300/2324 04011KT P6SM SCT070 BKN200
     FM230300 04008KT P6SM -RA BKN050 OVC080
     FM230800 04010KT 5SM -RASN BR OVC025
     FM231300 36014KT P6SM SCT050 BKN100
     FM231800 35024G31KT P6SM SCT070 SCT120=

USA.gov is the U.S. government's official web portal to all federal, state and local government web resources and services.